This is the latest recevied weather packets stored in our database for station/object KB2SKP. If no packets are shown the sender has not sent any weather packets the latest 10 day(s).
| Time | Temp. | Humidity | Pressure | Rain* | Wind** | Luminosity | Snow |
|---|---|---|---|---|---|---|---|
| 1777775096 | 10° C | 71% | 1009.3 hPa | 0 mm | - | 0 W/m² | - |
| 1777770853 | 10° C | 77% | 1009.1 hPa | 0 mm | - | 0 W/m² | - |
| 1777769337 | 10.56° C | 75% | 1008.8 hPa | 0 mm | - | 0 W/m² | - |
| 1777767823 | 11.11° C | 70% | 1008.1 hPa | 0 mm | - | 0 W/m² | - |
| 1777767215 | 11.11° C | 67% | 1008 hPa | 0 mm | - | 0 W/m² | - |
| 1777766307 | 11.67° C | 68% | 1008.1 hPa | 0 mm | - | 1 W/m² | - |
| 1777765398 | 12.22° C | 64% | 1008.1 hPa | 0 mm | - | 3 W/m² | - |
| 1777764791 | 12.78° C | 59% | 1007.7 hPa | 0 mm | - | 5 W/m² | - |
| 1777764488 | 12.78° C | 55% | 1007.9 hPa | 0 mm | - | 6 W/m² | - |
| 1777763881 | 12.78° C | 56% | 1007.7 hPa | 0 mm | - | 9 W/m² | - |
| 1777760854 | 13.89° C | 50% | 1008.1 hPa | 0 mm | - | 27 W/m² | - |
| 1777760550 | 13.89° C | 51% | 1008 hPa | 0 mm | - | 37 W/m² | - |
| 1777760246 | 13.89° C | 52% | 1008.3 hPa | 0 mm | - | 26 W/m² | - |
| 1777759943 | 13.89° C | 50% | 1007.9 hPa | 0 mm | - | 34 W/m² | - |
| 1777759639 | 13.89° C | 49% | 1008 hPa | 0 mm | - | 68 W/m² | - |
| 1777759336 | 13.89° C | 49% | 1007.9 hPa | 0 mm | - | 72 W/m² | - |
| 1777759033 | 13.89° C | 52% | 1008.2 hPa | 0 mm | - | 67 W/m² | - |
| 1777758730 | 13.89° C | 50% | 1007.9 hPa | 0 mm | - | 69 W/m² | - |
| 1777757821 | 13.89° C | 51% | 1008 hPa | 0 mm | - | 34 W/m² | - |
| 1777757518 | 13.33° C | 51% | 1007.9 hPa | 0 mm | - | 30 W/m² | - |
| 1777757217 | 13.89° C | 50% | 1007.9 hPa | 0 mm | - | 34 W/m² | - |
| 1777756915 | 13.89° C | 50% | 1007.9 hPa | 0 mm | - | 27 W/m² | - |
| 1777756308 | 13.89° C | 51% | 1007.8 hPa | 0 mm | - | 58 W/m² | - |
| 1777755702 | 13.89° C | 50% | 1007.6 hPa | 0 mm | - | 68 W/m² | - |
| 1777754186 | 14.44° C | 51% | 1007.8 hPa | 0 mm | - | 47 W/m² | - |
* Rain latest hour (hover to see other rain measurements)
** Current wind speed in m/s (hover to see current wind gust speed)